sensor_id;sensor_type;location;lat;lon;timestamp;temperature;humidity
16271;DHT22;8243;49.048;8.396;2023-09-08T00:01:03;18.10;99.90
16271;DHT22;8243;49.048;8.396;2023-09-08T00:03:29;18.00;99.90
16271;DHT22;8243;49.048;8.396;2023-09-08T00:05:55;17.90;99.90
16271;DHT22;8243;49.048;8.396;2023-09-08T00:08:21;17.90;99.90
16271;DHT22;8243;49.048;8.396;2023-09-08T00:10:47;17.90;99.90
16271;DHT22;8243;49.048;8.396;2023-09-08T00:13:13;17.90;99.90
16271;DHT22;8243;49.048;8.396;2023-09-08T00:15:38;17.80;99.90
16271;DHT22;8243;49.048;8.396;2023-09-08T00:18:04;17.80;99.90
16271;DHT22;8243;49.048;8.396;2023-09-08T00:20:30;17.70;99.90
16271;DHT22;8243;49.048;8.396;2023-09-08T00:22:56;17.70;99.90
16271;DHT22;8243;49.048;8.396;2023-09-08T00:25:21;17.60;99.90
16271;DHT22;8243;49.048;8.396;2023-09-08T00:27:47;17.60;99.90
16271;DHT22;8243;49.048;8.396;2023-09-08T00:30:13;17.60;99.90
16271;DHT22;8243;49.048;8.396;2023-09-08T00:32:39;17.60;99.90
16271;DHT22;8243;49.048;8.396;2023-09-08T00:35:11;17.50;99.90
16271;DHT22;8243;49.048;8.396;2023-09-08T00:37:39;17.50;99.90
16271;DHT22;8243;49.048;8.396;2023-09-08T00:40:05;17.40;99.90
16271;DHT22;8243;49.048;8.396;2023-09-08T00:42:32;17.40;99.90
16271;DHT22;8243;49.048;8.396;2023-09-08T00:44:58;17.30;99.90
16271;DHT22;8243;49.048;8.396;2023-09-08T00:47:23;17.20;99.90
16271;DHT22;8243;49.048;8.396;2023-09-08T00:49:49;17.20;99.90
16271;DHT22;8243;49.048;8.396;2023-09-08T00:52:17;17.10;99.90
16271;DHT22;8243;49.048;8.396;2023-09-08T00:54:42;17.10;99.90
16271;DHT22;8243;49.048;8.396;2023-09-08T00:57:09;17.00;99.90
16271;DHT22;8243;49.048;8.396;2023-09-08T00:59:35;16.90;99.90
16271;DHT22;8243;49.048;8.396;2023-09-08T01:02:02;16.90;99.90
16271;DHT22;8243;49.048;8.396;2023-09-08T01:04:28;16.70;99.90
16271;DHT22;8243;49.048;8.396;2023-09-08T01:06:55;16.60;99.90
16271;DHT22;8243;49.048;8.396;2023-09-08T01:09:21;16.60;99.90
16271;DHT22;8243;49.048;8.396;2023-09-08T01:11:48;16.60;99.90
16271;DHT22;8243;49.048;8.396;2023-09-08T01:14:18;16.60;99.90
16271;DHT22;8243;49.048;8.396;2023-09-08T01:16:45;16.60;99.90
16271;DHT22;8243;49.048;8.396;2023-09-08T01:19:13;16.60;99.90
16271;DHT22;8243;49.048;8.396;2023-09-08T01:27:24;16.50;99.90
16271;DHT22;8243;49.048;8.396;2023-09-08T01:29:51;16.50;99.90
16271;DHT22;8243;49.048;8.396;2023-09-08T01:32:20;16.50;99.90
16271;DHT22;8243;49.048;8.396;2023-09-08T01:34:46;16.50;99.90
16271;DHT22;8243;49.048;8.396;2023-09-08T01:37:12;16.50;99.90
16271;DHT22;8243;49.048;8.396;2023-09-08T01:39:37;16.50;99.90
16271;DHT22;8243;49.048;8.396;2023-09-08T01:42:03;16.40;99.90
16271;DHT22;8243;49.048;8.396;2023-09-08T01:44:29;16.40;99.90
16271;DHT22;8243;49.048;8.396;2023-09-08T01:46:54;16.40;99.90
16271;DHT22;8243;49.048;8.396;2023-09-08T01:49:23;16.40;99.90
16271;DHT22;8243;49.048;8.396;2023-09-08T01:51:49;16.30;99.90
16271;DHT22;8243;49.048;8.396;2023-09-08T01:54:16;16.30;99.90
16271;DHT22;8243;49.048;8.396;2023-09-08T01:56:41;16.20;99.90
16271;DHT22;8243;49.048;8.396;2023-09-08T01:59:07;16.20;99.90
16271;DHT22;8243;49.048;8.396;2023-09-08T02:01:33;16.20;99.90
16271;DHT22;8243;49.048;8.396;2023-09-08T02:03:59;16.10;99.90
16271;DHT22;8243;49.048;8.396;2023-09-08T02:06:25;16.00;99.90
16271;DHT22;8243;49.048;8.396;2023-09-08T02:08:51;16.10;99.90
16271;DHT22;8243;49.048;8.396;2023-09-08T02:11:16;16.10;99.90
16271;DHT22;8243;49.048;8.396;2023-09-08T02:13:42;16.10;99.90
16271;DHT22;8243;49.048;8.396;2023-09-08T02:16:15;16.10;99.90
16271;DHT22;8243;49.048;8.396;2023-09-08T02:18:45;16.00;99.90
16271;DHT22;8243;49.048;8.396;2023-09-08T02:21:11;16.00;99.90
16271;DHT22;8243;49.048;8.396;2023-09-08T02:23:37;16.00;99.90
16271;DHT22;8243;49.048;8.396;2023-09-08T02:26:03;15.90;99.90
16271;DHT22;8243;49.048;8.396;2023-09-08T02:28:29;15.90;99.90
16271;DHT22;8243;49.048;8.396;2023-09-08T02:30:55;15.90;99.90
16271;DHT22;8243;49.048;8.396;2023-09-08T02:33:21;15.80;99.90
16271;DHT22;8243;49.048;8.396;2023-09-08T02:35:46;15.80;99.90
16271;DHT22;8243;49.048;8.396;2023-09-08T02:38:12;15.80;99.90
16271;DHT22;8243;49.048;8.396;2023-09-08T02:40:38;15.80;99.90
16271;DHT22;8243;49.048;8.396;2023-09-08T02:43:04;15.70;99.90
16271;DHT22;8243;49.048;8.396;2023-09-08T02:45:30;15.70;99.90
16271;DHT22;8243;49.048;8.396;2023-09-08T02:47:56;15.60;99.90
16271;DHT22;8243;49.048;8.396;2023-09-08T02:50:22;15.60;99.90
16271;DHT22;8243;49.048;8.396;2023-09-08T02:52:49;15.60;99.90
16271;DHT22;8243;49.048;8.396;2023-09-08T02:55:15;15.50;99.90
16271;DHT22;8243;49.048;8.396;2023-09-08T02:57:40;15.40;99.90
16271;DHT22;8243;49.048;8.396;2023-09-08T03:00:07;15.40;99.90
16271;DHT22;8243;49.048;8.396;2023-09-08T03:02:33;15.40;99.90
16271;DHT22;8243;49.048;8.396;2023-09-08T03:04:59;15.40;99.90
16271;DHT22;8243;49.048;8.396;2023-09-08T03:07:26;15.50;99.90
16271;DHT22;8243;49.048;8.396;2023-09-08T03:09:52;15.50;99.90
16271;DHT22;8243;49.048;8.396;2023-09-08T03:12:18;15.50;99.90
16271;DHT22;8243;49.048;8.396;2023-09-08T03:14:43;15.60;99.90
16271;DHT22;8243;49.048;8.396;2023-09-08T03:17:10;15.60;99.90
16271;DHT22;8243;49.048;8.396;2023-09-08T03:19:36;15.60;99.90
16271;DHT22;8243;49.048;8.396;2023-09-08T03:22:03;15.60;99.90
16271;DHT22;8243;49.048;8.396;2023-09-08T03:24:28;15.60;99.90
16271;DHT22;8243;49.048;8.396;2023-09-08T03:26:54;15.60;99.90
16271;DHT22;8243;49.048;8.396;2023-09-08T03:29:19;15.50;99.90
16271;DHT22;8243;49.048;8.396;2023-09-08T03:31:45;15.50;99.90
16271;DHT22;8243;49.048;8.396;2023-09-08T03:34:11;15.50;99.90
16271;DHT22;8243;49.048;8.396;2023-09-08T03:36:37;15.50;99.90
16271;DHT22;8243;49.048;8.396;2023-09-08T03:39:03;15.40;99.90
16271;DHT22;8243;49.048;8.396;2023-09-08T03:41:29;15.40;99.90
16271;DHT22;8243;49.048;8.396;2023-09-08T03:43:55;15.40;99.90
16271;DHT22;8243;49.048;8.396;2023-09-08T03:46:20;15.40;99.90
16271;DHT22;8243;49.048;8.396;2023-09-08T03:48:46;15.30;99.90
16271;DHT22;8243;49.048;8.396;2023-09-08T03:51:12;15.20;99.90
16271;DHT22;8243;49.048;8.396;2023-09-08T03:53:37;15.10;99.90
16271;DHT22;8243;49.048;8.396;2023-09-08T03:56:03;15.10;99.90
16271;DHT22;8243;49.048;8.396;2023-09-08T03:58:29;15.00;99.90
16271;DHT22;8243;49.048;8.396;2023-09-08T04:00:54;15.00;99.90
16271;DHT22;8243;49.048;8.396;2023-09-08T04:03:20;15.00;99.90
16271;DHT22;8243;49.048;8.396;2023-09-08T04:05:46;15.00;99.90
16271;DHT22;8243;49.048;8.396;2023-09-08T04:08:12;15.00;99.90
16271;DHT22;8243;49.048;8.396;2023-09-08T04:10:38;15.00;99.90
16271;DHT22;8243;49.048;8.396;2023-09-08T04:13:04;14.90;99.90
16271;DHT22;8243;49.048;8.396;2023-09-08T04:15:30;15.00;99.90
16271;DHT22;8243;49.048;8.396;2023-09-08T04:17:55;15.00;99.90
16271;DHT22;8243;49.048;8.396;2023-09-08T04:20:22;15.00;99.90
16271;DHT22;8243;49.048;8.396;2023-09-08T04:22:48;14.90;99.90
16271;DHT22;8243;49.048;8.396;2023-09-08T04:25:13;14.90;99.90
16271;DHT22;8243;49.048;8.396;2023-09-08T04:27:39;14.80;99.90
16271;DHT22;8243;49.048;8.396;2023-09-08T04:30:06;14.80;99.90
16271;DHT22;8243;49.048;8.396;2023-09-08T04:32:33;14.80;99.90
16271;DHT22;8243;49.048;8.396;2023-09-08T04:34:59;14.80;99.90
16271;DHT22;8243;49.048;8.396;2023-09-08T04:37:24;14.80;99.90
16271;DHT22;8243;49.048;8.396;2023-09-08T04:39:50;14.70;99.90
16271;DHT22;8243;49.048;8.396;2023-09-08T04:42:16;14.70;99.90
16271;DHT22;8243;49.048;8.396;2023-09-08T04:44:42;14.70;99.90
16271;DHT22;8243;49.048;8.396;2023-09-08T04:47:08;14.60;99.90
16271;DHT22;8243;49.048;8.396;2023-09-08T04:49:33;14.60;99.90
16271;DHT22;8243;49.048;8.396;2023-09-08T04:51:59;14.60;99.90
16271;DHT22;8243;49.048;8.396;2023-09-08T04:54:25;14.60;99.90
16271;DHT22;8243;49.048;8.396;2023-09-08T04:56:53;14.60;99.90
16271;DHT22;8243;49.048;8.396;2023-09-08T04:59:19;14.60;99.90
16271;DHT22;8243;49.048;8.396;2023-09-08T05:01:45;14.70;99.90
16271;DHT22;8243;49.048;8.396;2023-09-08T05:04:11;14.70;99.90
16271;DHT22;8243;49.048;8.396;2023-09-08T05:06:37;14.70;99.90
16271;DHT22;8243;49.048;8.396;2023-09-08T05:09:02;14.70;99.90
16271;DHT22;8243;49.048;8.396;2023-09-08T05:11:28;14.70;99.90
16271;DHT22;8243;49.048;8.396;2023-09-08T05:13:54;14.70;99.90
16271;DHT22;8243;49.048;8.396;2023-09-08T05:16:20;14.70;99.90
16271;DHT22;8243;49.048;8.396;2023-09-08T05:19:01;14.80;99.90
16271;DHT22;8243;49.048;8.396;2023-09-08T05:21:26;14.80;99.90
16271;DHT22;8243;49.048;8.396;2023-09-08T05:23:52;14.90;99.90
16271;DHT22;8243;49.048;8.396;2023-09-08T05:26:18;14.90;99.90
16271;DHT22;8243;49.048;8.396;2023-09-08T05:28:43;14.90;99.90
16271;DHT22;8243;49.048;8.396;2023-09-08T05:31:09;15.00;99.90
16271;DHT22;8243;49.048;8.396;2023-09-08T05:33:34;15.10;99.90
16271;DHT22;8243;49.048;8.396;2023-09-08T05:36:00;15.20;99.90
16271;DHT22;8243;49.048;8.396;2023-09-08T05:38:26;15.20;99.90
16271;DHT22;8243;49.048;8.396;2023-09-08T05:40:53;15.20;99.90
16271;DHT22;8243;49.048;8.396;2023-09-08T05:43:19;15.20;99.90
16271;DHT22;8243;49.048;8.396;2023-09-08T05:45:44;15.30;99.90
16271;DHT22;8243;49.048;8.396;2023-09-08T05:48:10;15.60;99.90
16271;DHT22;8243;49.048;8.396;2023-09-08T05:50:36;15.90;99.90
16271;DHT22;8243;49.048;8.396;2023-09-08T05:53:02;16.70;99.90
16271;DHT22;8243;49.048;8.396;2023-09-08T05:55:28;17.80;99.90
16271;DHT22;8243;49.048;8.396;2023-09-08T05:57:54;18.80;99.90
16271;DHT22;8243;49.048;8.396;2023-09-08T06:00:19;19.70;99.90
16271;DHT22;8243;49.048;8.396;2023-09-08T06:02:45;20.80;95.10
16271;DHT22;8243;49.048;8.396;2023-09-08T06:05:11;21.30;89.90
16271;DHT22;8243;49.048;8.396;2023-09-08T06:07:37;22.00;78.40
16271;DHT22;8243;49.048;8.396;2023-09-08T06:10:03;22.70;68.10
16271;DHT22;8243;49.048;8.396;2023-09-08T06:12:29;23.10;60.20
16271;DHT22;8243;49.048;8.396;2023-09-08T06:14:54;23.90;50.20
16271;DHT22;8243;49.048;8.396;2023-09-08T06:17:20;24.00;43.60
16271;DHT22;8243;49.048;8.396;2023-09-08T06:19:46;24.00;39.80
16271;DHT22;8243;49.048;8.396;2023-09-08T06:22:12;23.80;37.40
16271;DHT22;8243;49.048;8.396;2023-09-08T06:24:38;23.60;36.40
16271;DHT22;8243;49.048;8.396;2023-09-08T06:27:05;23.90;34.10
16271;DHT22;8243;49.048;8.396;2023-09-08T06:29:32;24.00;32.30
16271;DHT22;8243;49.048;8.396;2023-09-08T06:31:58;24.20;30.90
16271;DHT22;8243;49.048;8.396;2023-09-08T06:34:24;24.50;29.30
16271;DHT22;8243;49.048;8.396;2023-09-08T06:36:50;25.20;26.50
16271;DHT22;8243;49.048;8.396;2023-09-08T06:39:16;24.90;26.20
16271;DHT22;8243;49.048;8.396;2023-09-08T06:41:43;24.70;26.50
16271;DHT22;8243;49.048;8.396;2023-09-08T06:44:08;25.40;24.50
16271;DHT22;8243;49.048;8.396;2023-09-08T06:46:34;25.50;23.40
16271;DHT22;8243;49.048;8.396;2023-09-08T06:48:59;25.70;22.10
16271;DHT22;8243;49.048;8.396;2023-09-08T06:51:25;25.90;21.20
16271;DHT22;8243;49.048;8.396;2023-09-08T06:53:55;25.60;21.30
16271;DHT22;8243;49.048;8.396;2023-09-08T06:56:25;25.50;21.30
16271;DHT22;8243;49.048;8.396;2023-09-08T06:58:51;25.80;20.50
16271;DHT22;8243;49.048;8.396;2023-09-08T07:01:17;26.10;19.80
16271;DHT22;8243;49.048;8.396;2023-09-08T07:03:44;26.20;20.20
16271;DHT22;8243;49.048;8.396;2023-09-08T07:06:10;26.20;18.80
16271;DHT22;8243;49.048;8.396;2023-09-08T07:08:36;25.90;19.50
16271;DHT22;8243;49.048;8.396;2023-09-08T07:11:03;25.90;19.50
16271;DHT22;8243;49.048;8.396;2023-09-08T07:13:29;25.70;20.20
16271;DHT22;8243;49.048;8.396;2023-09-08T07:15:54;26.80;18.50
16271;DHT22;8243;49.048;8.396;2023-09-08T07:18:20;27.60;16.20
16271;DHT22;8243;49.048;8.396;2023-09-08T07:20:47;28.30;15.00
16271;DHT22;8243;49.048;8.396;2023-09-08T07:23:14;27.80;15.20
16271;DHT22;8243;49.048;8.396;2023-09-08T07:25:40;27.90;14.30
16271;DHT22;8243;49.048;8.396;2023-09-08T07:28:05;28.10;13.90
16271;DHT22;8243;49.048;8.396;2023-09-08T07:30:32;28.10;13.70
16271;DHT22;8243;49.048;8.396;2023-09-08T07:32:57;28.10;14.20
16271;DHT22;8243;49.048;8.396;2023-09-08T07:35:23;28.20;13.80
16271;DHT22;8243;49.048;8.396;2023-09-08T07:37:50;27.90;14.40
16271;DHT22;8243;49.048;8.396;2023-09-08T07:40:16;28.40;13.30
16271;DHT22;8243;49.048;8.396;2023-09-08T07:42:42;29.40;11.60
16271;DHT22;8243;49.048;8.396;2023-09-08T07:45:08;29.00;12.40
16271;DHT22;8243;49.048;8.396;2023-09-08T07:47:35;28.80;12.40
16271;DHT22;8243;49.048;8.396;2023-09-08T07:50:21;29.00;11.90
16271;DHT22;8243;49.048;8.396;2023-09-08T07:52:51;28.60;13.50
16271;DHT22;8243;49.048;8.396;2023-09-08T07:55:17;28.60;13.40
16271;DHT22;8243;49.048;8.396;2023-09-08T07:57:44;29.00;13.30
16271;DHT22;8243;49.048;8.396;2023-09-08T08:00:11;29.50;11.50
16271;DHT22;8243;49.048;8.396;2023-09-08T08:02:41;29.90;10.70
16271;DHT22;8243;49.048;8.396;2023-09-08T08:05:07;29.90;10.70
16271;DHT22;8243;49.048;8.396;2023-09-08T08:07:33;30.20;10.60
16271;DHT22;8243;49.048;8.396;2023-09-08T08:09:59;30.20;10.10
16271;DHT22;8243;49.048;8.396;2023-09-08T08:12:24;29.30;11.60
16271;DHT22;8243;49.048;8.396;2023-09-08T08:14:50;30.10;10.20
16271;DHT22;8243;49.048;8.396;2023-09-08T08:17:16;30.00;10.10
16271;DHT22;8243;49.048;8.396;2023-09-08T08:19:43;29.50;11.50
16271;DHT22;8243;49.048;8.396;2023-09-08T08:22:09;29.20;12.40
16271;DHT22;8243;49.048;8.396;2023-09-08T08:24:35;29.90;11.60
16271;DHT22;8243;49.048;8.396;2023-09-08T08:27:00;29.80;11.20
16271;DHT22;8243;49.048;8.396;2023-09-08T08:29:27;30.80;9.70
16271;DHT22;8243;49.048;8.396;2023-09-08T08:31:52;30.60;9.80
16271;DHT22;8243;49.048;8.396;2023-09-08T08:34:18;30.20;10.10
16271;DHT22;8243;49.048;8.396;2023-09-08T08:36:45;30.10;10.40
16271;DHT22;8243;49.048;8.396;2023-09-08T08:39:11;30.80;10.40
16271;DHT22;8243;49.048;8.396;2023-09-08T08:41:36;30.20;10.60
16271;DHT22;8243;49.048;8.396;2023-09-08T08:44:07;30.50;11.40
16271;DHT22;8243;49.048;8.396;2023-09-08T08:46:34;30.90;11.20
16271;DHT22;8243;49.048;8.396;2023-09-08T08:49:03;30.50;11.10
16271;DHT22;8243;49.048;8.396;2023-09-08T08:51:34;30.50;11.30
16271;DHT22;8243;49.048;8.396;2023-09-08T08:54:01;30.90;11.70
16271;DHT22;8243;49.048;8.396;2023-09-08T08:56:35;31.40;10.90
16271;DHT22;8243;49.048;8.396;2023-09-08T08:59:01;31.90;9.40
16271;DHT22;8243;49.048;8.396;2023-09-08T09:01:28;32.40;8.00
16271;DHT22;8243;49.048;8.396;2023-09-08T09:03:55;31.90;8.90
16271;DHT22;8243;49.048;8.396;2023-09-08T09:06:22;31.70;9.80
16271;DHT22;8243;49.048;8.396;2023-09-08T09:08:48;30.20;11.40
16271;DHT22;8243;49.048;8.396;2023-09-08T09:11:13;30.40;11.90
16271;DHT22;8243;49.048;8.396;2023-09-08T09:13:39;30.80;11.20
16271;DHT22;8243;49.048;8.396;2023-09-08T09:16:05;31.10;9.80
16271;DHT22;8243;49.048;8.396;2023-09-08T09:18:57;30.80;11.30
16271;DHT22;8243;49.048;8.396;2023-09-08T09:21:26;31.40;10.70
16271;DHT22;8243;49.048;8.396;2023-09-08T09:24:06;30.90;10.30
16271;DHT22;8243;49.048;8.396;2023-09-08T09:26:31;31.00;10.90
16271;DHT22;8243;49.048;8.396;2023-09-08T09:28:57;31.40;9.60
16271;DHT22;8243;49.048;8.396;2023-09-08T09:31:25;31.30;10.00
16271;DHT22;8243;49.048;8.396;2023-09-08T09:34:04;31.90;9.10
16271;DHT22;8243;49.048;8.396;2023-09-08T09:36:31;31.90;9.20
16271;DHT22;8243;49.048;8.396;2023-09-08T09:39:00;32.00;8.90
16271;DHT22;8243;49.048;8.396;2023-09-08T09:41:29;32.40;8.00
16271;DHT22;8243;49.048;8.396;2023-09-08T09:43:56;31.40;9.20
16271;DHT22;8243;49.048;8.396;2023-09-08T09:46:22;30.30;10.90
16271;DHT22;8243;49.048;8.396;2023-09-08T09:48:54;29.70;12.50
16271;DHT22;8243;49.048;8.396;2023-09-08T09:51:22;29.60;14.20
16271;DHT22;8243;49.048;8.396;2023-09-08T09:53:51;29.80;13.00
16271;DHT22;8243;49.048;8.396;2023-09-08T09:56:18;29.60;14.50
16271;DHT22;8243;49.048;8.396;2023-09-08T09:58:44;30.30;13.50
16271;DHT22;8243;49.048;8.396;2023-09-08T10:01:11;30.80;11.70
16271;DHT22;8243;49.048;8.396;2023-09-08T10:03:40;30.60;12.50
16271;DHT22;8243;49.048;8.396;2023-09-08T10:06:12;30.50;12.30
16271;DHT22;8243;49.048;8.396;2023-09-08T10:08:40;30.30;12.90
16271;DHT22;8243;49.048;8.396;2023-09-08T10:11:07;30.20;13.90
16271;DHT22;8243;49.048;8.396;2023-09-08T10:13:39;30.40;13.60
16271;DHT22;8243;49.048;8.396;2023-09-08T10:16:13;30.70;12.40
16271;DHT22;8243;49.048;8.396;2023-09-08T10:18:44;30.60;13.30
16271;DHT22;8243;49.048;8.396;2023-09-08T10:21:10;30.50;13.40
16271;DHT22;8243;49.048;8.396;2023-09-08T10:23:49;30.60;13.70
16271;DHT22;8243;49.048;8.396;2023-09-08T10:26:22;30.20;13.70
16271;DHT22;8243;49.048;8.396;2023-09-08T10:28:53;30.50;13.00
16271;DHT22;8243;49.048;8.396;2023-09-08T10:31:24;30.30;13.00
16271;DHT22;8243;49.048;8.396;2023-09-08T10:33:52;30.30;13.60
16271;DHT22;8243;49.048;8.396;2023-09-08T10:36:18;29.60;14.30
16271;DHT22;8243;49.048;8.396;2023-09-08T10:38:44;29.60;16.50
16271;DHT22;8243;49.048;8.396;2023-09-08T10:43:57;29.50;15.20
16271;DHT22;8243;49.048;8.396;2023-09-08T10:46:28;29.20;15.60
16271;DHT22;8243;49.048;8.396;2023-09-08T10:49:02;29.70;15.80
16271;DHT22;8243;49.048;8.396;2023-09-08T10:51:33;29.40;15.20
16271;DHT22;8243;49.048;8.396;2023-09-08T10:54:02;28.80;16.30
16271;DHT22;8243;49.048;8.396;2023-09-08T10:56:53;28.30;18.60
16271;DHT22;8243;49.048;8.396;2023-09-08T10:59:19;28.90;18.30
16271;DHT22;8243;49.048;8.396;2023-09-08T11:01:49;29.40;16.80
16271;DHT22;8243;49.048;8.396;2023-09-08T11:04:15;29.50;16.40
16271;DHT22;8243;49.048;8.396;2023-09-08T11:06:44;29.80;15.20
16271;DHT22;8243;49.048;8.396;2023-09-08T11:09:10;29.60;15.40
16271;DHT22;8243;49.048;8.396;2023-09-08T11:11:36;28.50;16.60
16271;DHT22;8243;49.048;8.396;2023-09-08T11:14:02;28.80;17.50
16271;DHT22;8243;49.048;8.396;2023-09-08T11:16:32;28.90;16.00
16271;DHT22;8243;49.048;8.396;2023-09-08T11:18:58;29.20;16.20
16271;DHT22;8243;49.048;8.396;2023-09-08T11:21:26;29.70;15.60
16271;DHT22;8243;49.048;8.396;2023-09-08T11:23:52;29.70;14.60
16271;DHT22;8243;49.048;8.396;2023-09-08T11:26:18;29.90;14.50
16271;DHT22;8243;49.048;8.396;2023-09-08T11:28:44;30.30;14.30
16271;DHT22;8243;49.048;8.396;2023-09-08T11:31:13;29.70;13.70
16271;DHT22;8243;49.048;8.396;2023-09-08T11:33:39;29.60;14.00
16271;DHT22;8243;49.048;8.396;2023-09-08T11:36:17;30.00;14.50
16271;DHT22;8243;49.048;8.396;2023-09-08T11:38:44;29.90;14.90
16271;DHT22;8243;49.048;8.396;2023-09-08T11:41:10;30.20;13.90
16271;DHT22;8243;49.048;8.396;2023-09-08T11:43:36;29.90;13.30
16271;DHT22;8243;49.048;8.396;2023-09-08T11:46:02;29.40;14.30
16271;DHT22;8243;49.048;8.396;2023-09-08T11:48:28;29.60;15.40
16271;DHT22;8243;49.048;8.396;2023-09-08T11:50:54;30.00;14.50
16271;DHT22;8243;49.048;8.396;2023-09-08T11:53:23;29.70;15.00
16271;DHT22;8243;49.048;8.396;2023-09-08T11:55:51;30.50;12.90
16271;DHT22;8243;49.048;8.396;2023-09-08T11:58:18;30.90;12.30
16271;DHT22;8243;49.048;8.396;2023-09-08T12:00:46;31.00;11.30
16271;DHT22;8243;49.048;8.396;2023-09-08T12:03:15;30.60;12.80
16271;DHT22;8243;49.048;8.396;2023-09-08T12:05:42;30.70;12.60
16271;DHT22;8243;49.048;8.396;2023-09-08T12:08:09;30.40;13.10
16271;DHT22;8243;49.048;8.396;2023-09-08T12:10:39;30.20;13.00
16271;DHT22;8243;49.048;8.396;2023-09-08T12:13:05;29.90;13.60
16271;DHT22;8243;49.048;8.396;2023-09-08T12:15:37;29.60;14.60
16271;DHT22;8243;49.048;8.396;2023-09-08T12:18:07;29.90;14.00
16271;DHT22;8243;49.048;8.396;2023-09-08T12:20:38;30.20;13.60
16271;DHT22;8243;49.048;8.396;2023-09-08T12:23:05;30.60;13.70
16271;DHT22;8243;49.048;8.396;2023-09-08T12:25:33;30.70;12.90
16271;DHT22;8243;49.048;8.396;2023-09-08T12:28:00;30.80;12.10
16271;DHT22;8243;49.048;8.396;2023-09-08T12:30:27;30.60;13.70
16271;DHT22;8243;49.048;8.396;2023-09-08T12:33:01;31.00;12.40
16271;DHT22;8243;49.048;8.396;2023-09-08T12:35:27;30.80;11.90
16271;DHT22;8243;49.048;8.396;2023-09-08T12:37:56;30.30;12.50
16271;DHT22;8243;49.048;8.396;2023-09-08T12:40:24;29.70;13.50
16271;DHT22;8243;49.048;8.396;2023-09-08T12:42:49;30.20;13.40
16271;DHT22;8243;49.048;8.396;2023-09-08T12:45:15;30.60;12.80
16271;DHT22;8243;49.048;8.396;2023-09-08T12:47:42;31.10;11.40
16271;DHT22;8243;49.048;8.396;2023-09-08T12:50:09;31.40;10.30
16271;DHT22;8243;49.048;8.396;2023-09-08T12:52:35;31.70;9.90
16271;DHT22;8243;49.048;8.396;2023-09-08T12:55:00;31.90;10.00
16271;DHT22;8243;49.048;8.396;2023-09-08T12:57:26;31.70;10.00
16271;DHT22;8243;49.048;8.396;2023-09-08T12:59:52;31.70;9.60
16271;DHT22;8243;49.048;8.396;2023-09-08T13:02:18;31.90;9.10
16271;DHT22;8243;49.048;8.396;2023-09-08T13:04:43;31.50;9.30
16271;DHT22;8243;49.048;8.396;2023-09-08T13:07:15;31.50;10.50
16271;DHT22;8243;49.048;8.396;2023-09-08T13:09:40;31.40;9.50
16271;DHT22;8243;49.048;8.396;2023-09-08T13:12:06;31.30;9.90
16271;DHT22;8243;49.048;8.396;2023-09-08T13:14:32;30.80;9.90
16271;DHT22;8243;49.048;8.396;2023-09-08T13:16:57;30.30;10.60
16271;DHT22;8243;49.048;8.396;2023-09-08T13:19:24;30.00;11.60
16271;DHT22;8243;49.048;8.396;2023-09-08T13:21:50;30.30;11.90
16271;DHT22;8243;49.048;8.396;2023-09-08T13:24:16;30.50;11.10
16271;DHT22;8243;49.048;8.396;2023-09-08T13:26:48;30.40;11.00
16271;DHT22;8243;49.048;8.396;2023-09-08T13:29:14;30.70;11.20
16271;DHT22;8243;49.048;8.396;2023-09-08T13:31:39;30.80;11.00
16271;DHT22;8243;49.048;8.396;2023-09-08T13:34:05;30.70;11.00
16271;DHT22;8243;49.048;8.396;2023-09-08T13:36:31;30.50;11.60
16271;DHT22;8243;49.048;8.396;2023-09-08T13:38:57;30.60;11.60
16271;DHT22;8243;49.048;8.396;2023-09-08T13:41:24;30.50;11.30
16271;DHT22;8243;49.048;8.396;2023-09-08T13:43:50;30.60;11.20
16271;DHT22;8243;49.048;8.396;2023-09-08T13:46:16;31.10;10.40
16271;DHT22;8243;49.048;8.396;2023-09-08T13:48:42;30.70;11.20
16271;DHT22;8243;49.048;8.396;2023-09-08T13:51:08;30.80;11.20
16271;DHT22;8243;49.048;8.396;2023-09-08T13:53:54;30.90;10.80
16271;DHT22;8243;49.048;8.396;2023-09-08T13:56:20;30.60;9.90
16271;DHT22;8243;49.048;8.396;2023-09-08T13:58:45;30.40;10.30
16271;DHT22;8243;49.048;8.396;2023-09-08T14:01:11;30.30;10.30
16271;DHT22;8243;49.048;8.396;2023-09-08T14:03:37;30.50;10.50
16271;DHT22;8243;49.048;8.396;2023-09-08T14:06:03;30.90;9.70
16271;DHT22;8243;49.048;8.396;2023-09-08T14:08:29;30.90;9.20
16271;DHT22;8243;49.048;8.396;2023-09-08T14:10:55;30.90;9.00
16271;DHT22;8243;49.048;8.396;2023-09-08T14:13:21;30.40;9.80
16271;DHT22;8243;49.048;8.396;2023-09-08T14:15:47;30.70;10.30
16271;DHT22;8243;49.048;8.396;2023-09-08T14:18:12;30.80;9.30
16271;DHT22;8243;49.048;8.396;2023-09-08T14:20:41;30.60;9.80
16271;DHT22;8243;49.048;8.396;2023-09-08T14:23:06;30.90;9.60
16271;DHT22;8243;49.048;8.396;2023-09-08T14:25:35;30.90;9.30
16271;DHT22;8243;49.048;8.396;2023-09-08T14:28:01;31.20;8.00
16271;DHT22;8243;49.048;8.396;2023-09-08T14:30:30;30.80;9.20
16271;DHT22;8243;49.048;8.396;2023-09-08T14:32:56;30.90;8.90
16271;DHT22;8243;49.048;8.396;2023-09-08T14:35:21;31.10;8.80
16271;DHT22;8243;49.048;8.396;2023-09-08T14:37:47;31.30;8.40
16271;DHT22;8243;49.048;8.396;2023-09-08T14:40:16;31.30;8.60
16271;DHT22;8243;49.048;8.396;2023-09-08T14:42:42;30.90;8.60
16271;DHT22;8243;49.048;8.396;2023-09-08T14:45:08;30.80;9.00
16271;DHT22;8243;49.048;8.396;2023-09-08T14:47:34;31.10;8.50
16271;DHT22;8243;49.048;8.396;2023-09-08T14:50:00;31.10;8.30
16271;DHT22;8243;49.048;8.396;2023-09-08T14:52:26;30.60;8.80
16271;DHT22;8243;49.048;8.396;2023-09-08T14:54:52;30.50;9.30
16271;DHT22;8243;49.048;8.396;2023-09-08T14:57:18;30.90;8.90
16271;DHT22;8243;49.048;8.396;2023-09-08T14:59:44;30.70;8.70
16271;DHT22;8243;49.048;8.396;2023-09-08T15:02:10;30.60;9.20
16271;DHT22;8243;49.048;8.396;2023-09-08T15:04:36;30.90;9.00
16271;DHT22;8243;49.048;8.396;2023-09-08T15:07:03;30.80;8.70
16271;DHT22;8243;49.048;8.396;2023-09-08T15:09:29;30.40;9.60
16271;DHT22;8243;49.048;8.396;2023-09-08T15:11:54;30.30;9.40
16271;DHT22;8243;49.048;8.396;2023-09-08T15:14:20;30.40;9.70
16271;DHT22;8243;49.048;8.396;2023-09-08T15:16:46;30.30;9.30
16271;DHT22;8243;49.048;8.396;2023-09-08T15:19:11;30.20;9.30
16271;DHT22;8243;49.048;8.396;2023-09-08T15:21:37;30.20;9.40
16271;DHT22;8243;49.048;8.396;2023-09-08T15:24:04;30.20;9.70
16271;DHT22;8243;49.048;8.396;2023-09-08T15:26:31;30.20;9.50
16271;DHT22;8243;49.048;8.396;2023-09-08T15:28:56;30.10;9.80
16271;DHT22;8243;49.048;8.396;2023-09-08T15:31:24;30.10;10.20
16271;DHT22;8243;49.048;8.396;2023-09-08T15:33:50;30.20;10.30
16271;DHT22;8243;49.048;8.396;2023-09-08T15:36:17;30.20;10.40
16271;DHT22;8243;49.048;8.396;2023-09-08T15:38:43;30.20;10.20
16271;DHT22;8243;49.048;8.396;2023-09-08T15:43:39;30.10;10.40
16271;DHT22;8243;49.048;8.396;2023-09-08T15:46:05;30.00;10.80
16271;DHT22;8243;49.048;8.396;2023-09-08T15:48:34;30.10;10.10
16271;DHT22;8243;49.048;8.396;2023-09-08T15:50:59;30.20;10.50
16271;DHT22;8243;49.048;8.396;2023-09-08T15:53:25;30.30;9.90
16271;DHT22;8243;49.048;8.396;2023-09-08T15:55:51;30.20;9.80